sensor_id;sensor_type;location;lat;lon;timestamp;pressure;altitude;pressure_sealevel;temperature;humidity
55990;BME280;41875;55.806;38.082;2023-03-21T00:00:30;98972.13;;;5.37;49.86
55990;BME280;41875;55.806;38.082;2023-03-21T00:02:59;98972.50;;;5.82;49.30
55990;BME280;41875;55.806;38.082;2023-03-21T00:05:27;98971.81;;;5.89;49.19
55990;BME280;41875;55.806;38.082;2023-03-21T00:07:55;98971.03;;;5.59;49.27
55990;BME280;41875;55.806;38.082;2023-03-21T00:10:26;98969.88;;;5.82;49.16
55990;BME280;41875;55.806;38.082;2023-03-21T00:13:08;98969.47;;;5.67;49.24
55990;BME280;41875;55.806;38.082;2023-03-21T00:15:39;98968.22;;;5.80;49.06
55990;BME280;41875;55.806;38.082;2023-03-21T00:18:31;98962.28;;;5.78;49.22
55990;BME280;41875;55.806;38.082;2023-03-21T00:21:03;98962.31;;;5.59;49.41
55990;BME280;41875;55.806;38.082;2023-03-21T00:23:51;98960.22;;;5.62;49.34
55990;BME280;41875;55.806;38.082;2023-03-21T00:26:19;98959.50;;;5.70;49.38
55990;BME280;41875;55.806;38.082;2023-03-21T00:28:49;98954.38;;;5.78;48.95
55990;BME280;41875;55.806;38.082;2023-03-21T00:31:19;98960.97;;;5.92;48.85
55990;BME280;41875;55.806;38.082;2023-03-21T00:33:48;98950.56;;;5.63;49.40
55990;BME280;41875;55.806;38.082;2023-03-21T00:36:16;98954.13;;;5.82;49.02
55990;BME280;41875;55.806;38.082;2023-03-21T00:38:44;98953.66;;;5.96;48.82
55990;BME280;41875;55.806;38.082;2023-03-21T00:41:13;98945.22;;;6.02;48.56
55990;BME280;41875;55.806;38.082;2023-03-21T00:44:01;98948.31;;;6.53;47.78
55990;BME280;41875;55.806;38.082;2023-03-21T00:46:30;98942.22;;;6.53;47.57
55990;BME280;41875;55.806;38.082;2023-03-21T00:49:11;98946.88;;;5.93;48.45
55990;BME280;41875;55.806;38.082;2023-03-21T00:51:39;98939.13;;;6.02;48.92
55990;BME280;41875;55.806;38.082;2023-03-21T00:54:09;98928.91;;;6.27;48.11
55990;BME280;41875;55.806;38.082;2023-03-21T00:56:39;98934.84;;;6.01;48.75
55990;BME280;41875;55.806;38.082;2023-03-21T00:59:10;98934.66;;;6.12;48.42
55990;BME280;41875;55.806;38.082;2023-03-21T01:01:38;98926.75;;;6.68;47.27
55990;BME280;41875;55.806;38.082;2023-03-21T01:04:06;98924.63;;;6.25;47.36
55990;BME280;41875;55.806;38.082;2023-03-21T01:06:39;98911.69;;;6.14;47.75
55990;BME280;41875;55.806;38.082;2023-03-21T01:09:10;98923.38;;;6.30;47.71
55990;BME280;41875;55.806;38.082;2023-03-21T01:11:39;98913.72;;;6.20;48.06
55990;BME280;41875;55.806;38.082;2023-03-21T01:14:11;98921.88;;;6.27;47.92
55990;BME280;41875;55.806;38.082;2023-03-21T01:16:49;98917.78;;;6.43;47.57
55990;BME280;41875;55.806;38.082;2023-03-21T01:19:18;98919.69;;;6.13;48.25
55990;BME280;41875;55.806;38.082;2023-03-21T01:21:55;98915.41;;;5.74;49.80
55990;BME280;41875;55.806;38.082;2023-03-21T01:24:24;98915.94;;;5.77;49.11
55990;BME280;41875;55.806;38.082;2023-03-21T01:26:52;98913.50;;;5.56;50.36
55990;BME280;41875;55.806;38.082;2023-03-21T01:29:21;98915.53;;;5.62;50.32
55990;BME280;41875;55.806;38.082;2023-03-21T01:31:50;98907.78;;;5.71;49.92
55990;BME280;41875;55.806;38.082;2023-03-21T01:34:18;98906.41;;;5.67;50.07
55990;BME280;41875;55.806;38.082;2023-03-21T01:36:46;98911.69;;;5.47;50.40
55990;BME280;41875;55.806;38.082;2023-03-21T01:39:19;98905.38;;;5.20;51.31
55990;BME280;41875;55.806;38.082;2023-03-21T01:41:48;98907.88;;;5.12;51.97
55990;BME280;41875;55.806;38.082;2023-03-21T01:44:24;98910.03;;;5.56;50.99
55990;BME280;41875;55.806;38.082;2023-03-21T01:46:53;98897.66;;;5.76;50.60
55990;BME280;41875;55.806;38.082;2023-03-21T01:49:44;98894.88;;;5.00;51.49
55990;BME280;41875;55.806;38.082;2023-03-21T01:52:18;98887.44;;;4.86;52.12
55990;BME280;41875;55.806;38.082;2023-03-21T01:55:05;98884.66;;;4.78;52.94
55990;BME280;41875;55.806;38.082;2023-03-21T01:57:48;98889.19;;;5.25;51.65
55990;BME280;41875;55.806;38.082;2023-03-21T02:00:57;98880.75;;;5.51;50.75
55990;BME280;41875;55.806;38.082;2023-03-21T02:03:34;98874.59;;;5.70;50.37
55990;BME280;41875;55.806;38.082;2023-03-21T02:06:25;98869.94;;;6.01;49.85
55990;BME280;41875;55.806;38.082;2023-03-21T02:09:07;98882.84;;;5.85;50.03
55990;BME280;41875;55.806;38.082;2023-03-21T02:11:37;98886.53;;;5.54;50.73
55990;BME280;41875;55.806;38.082;2023-03-21T02:14:08;98881.63;;;5.69;50.35
55990;BME280;41875;55.806;38.082;2023-03-21T02:16:59;98881.09;;;5.75;49.85
55990;BME280;41875;55.806;38.082;2023-03-21T02:22:27;98879.97;;;5.78;50.11
55990;BME280;41875;55.806;38.082;2023-03-21T02:25:16;98880.19;;;5.47;50.81
55990;BME280;41875;55.806;38.082;2023-03-21T02:27:52;98874.41;;;5.81;49.95
55990;BME280;41875;55.806;38.082;2023-03-21T02:30:30;98867.19;;;5.45;50.40
55990;BME280;41875;55.806;38.082;2023-03-21T02:33:36;98866.31;;;5.64;50.07
55990;BME280;41875;55.806;38.082;2023-03-21T02:36:16;98870.94;;;5.43;51.16
55990;BME280;41875;55.806;38.082;2023-03-21T02:38:53;98860.75;;;5.20;51.41
55990;BME280;41875;55.806;38.082;2023-03-21T02:41:24;98861.00;;;5.27;51.51
55990;BME280;41875;55.806;38.082;2023-03-21T02:44:06;98863.59;;;5.46;51.22
55990;BME280;41875;55.806;38.082;2023-03-21T02:46:42;98856.19;;;5.79;50.71
55990;BME280;41875;55.806;38.082;2023-03-21T02:49:25;98858.16;;;5.68;50.75
55990;BME280;41875;55.806;38.082;2023-03-21T02:51:56;98859.09;;;5.76;50.71
55990;BME280;41875;55.806;38.082;2023-03-21T02:54:41;98852.91;;;6.05;49.85
55990;BME280;41875;55.806;38.082;2023-03-21T02:57:18;98850.28;;;5.58;50.49
55990;BME280;41875;55.806;38.082;2023-03-21T02:59:49;98839.84;;;5.38;51.33
55990;BME280;41875;55.806;38.082;2023-03-21T03:02:30;98843.00;;;5.52;51.38
55990;BME280;41875;55.806;38.082;2023-03-21T03:04:59;98841.19;;;5.52;51.23
55990;BME280;41875;55.806;38.082;2023-03-21T03:07:38;98837.81;;;5.22;51.87
55990;BME280;41875;55.806;38.082;2023-03-21T03:10:19;98839.81;;;5.48;51.85
55990;BME280;41875;55.806;38.082;2023-03-21T03:12:53;98831.47;;;6.00;50.36
55990;BME280;41875;55.806;38.082;2023-03-21T03:15:28;98836.84;;;5.71;50.45
55990;BME280;41875;55.806;38.082;2023-03-21T03:18:05;98830.16;;;6.14;49.89
55990;BME280;41875;55.806;38.082;2023-03-21T03:20:41;98831.03;;;6.33;49.43
55990;BME280;41875;55.806;38.082;2023-03-21T03:23:16;98826.09;;;6.02;49.90
55990;BME280;41875;55.806;38.082;2023-03-21T03:25:50;98823.69;;;5.71;50.29
55990;BME280;41875;55.806;38.082;2023-03-21T03:28:22;98816.06;;;5.40;51.61
55990;BME280;41875;55.806;38.082;2023-03-21T03:30:53;98818.47;;;5.61;51.22
55990;BME280;41875;55.806;38.082;2023-03-21T03:33:42;98822.84;;;5.32;51.56
55990;BME280;41875;55.806;38.082;2023-03-21T03:36:14;98829.25;;;5.68;51.26
55990;BME280;41875;55.806;38.082;2023-03-21T03:39:01;98821.75;;;5.73;50.73
55990;BME280;41875;55.806;38.082;2023-03-21T03:41:34;98823.00;;;5.69;50.92
55990;BME280;41875;55.806;38.082;2023-03-21T03:44:29;98819.66;;;5.76;50.65
55990;BME280;41875;55.806;38.082;2023-03-21T03:47:03;98819.38;;;5.79;50.78
55990;BME280;41875;55.806;38.082;2023-03-21T03:49:35;98824.44;;;5.53;51.13
55990;BME280;41875;55.806;38.082;2023-03-21T03:52:06;98824.66;;;5.32;51.82
55990;BME280;41875;55.806;38.082;2023-03-21T03:54:39;98819.00;;;5.27;51.95
55990;BME280;41875;55.806;38.082;2023-03-21T03:57:11;98819.47;;;5.50;51.77
55990;BME280;41875;55.806;38.082;2023-03-21T03:59:40;98821.03;;;5.43;51.65
55990;BME280;41875;55.806;38.082;2023-03-21T04:02:20;98815.78;;;5.80;50.95
55990;BME280;41875;55.806;38.082;2023-03-21T04:04:50;98816.00;;;5.59;51.45
55990;BME280;41875;55.806;38.082;2023-03-21T04:07:19;98820.97;;;5.90;50.72
55990;BME280;41875;55.806;38.082;2023-03-21T04:09:51;98817.91;;;5.67;51.08
55990;BME280;41875;55.806;38.082;2023-03-21T04:12:21;98824.72;;;5.60;51.41
55990;BME280;41875;55.806;38.082;2023-03-21T04:15:06;98816.31;;;5.84;51.07
55990;BME280;41875;55.806;38.082;2023-03-21T04:17:41;98808.94;;;5.60;51.51
55990;BME280;41875;55.806;38.082;2023-03-21T04:20:11;98812.25;;;5.24;52.13
55990;BME280;41875;55.806;38.082;2023-03-21T04:22:55;98815.88;;;4.94;53.32
55990;BME280;41875;55.806;38.082;2023-03-21T04:25:24;98808.13;;;5.12;52.73
55990;BME280;41875;55.806;38.082;2023-03-21T04:28:03;98810.94;;;5.76;51.87
55990;BME280;41875;55.806;38.082;2023-03-21T04:30:38;98811.19;;;5.45;52.19
55990;BME280;41875;55.806;38.082;2023-03-21T04:33:20;98810.22;;;5.46;52.79
55990;BME280;41875;55.806;38.082;2023-03-21T04:35:54;98794.28;;;5.19;53.21
55990;BME280;41875;55.806;38.082;2023-03-21T04:38:29;98813.06;;;5.15;53.62
55990;BME280;41875;55.806;38.082;2023-03-21T04:41:01;98811.44;;;5.14;53.68
55990;BME280;41875;55.806;38.082;2023-03-21T04:43:31;98806.22;;;4.94;54.22
55990;BME280;41875;55.806;38.082;2023-03-21T04:45:59;98805.47;;;5.22;53.46
55990;BME280;41875;55.806;38.082;2023-03-21T04:48:27;98798.69;;;5.19;53.90
55990;BME280;41875;55.806;38.082;2023-03-21T04:50:58;98808.19;;;5.40;53.33
55990;BME280;41875;55.806;38.082;2023-03-21T04:53:27;98799.25;;;5.60;52.57
55990;BME280;41875;55.806;38.082;2023-03-21T04:55:55;98802.94;;;5.40;53.18
55990;BME280;41875;55.806;38.082;2023-03-21T04:58:24;98795.28;;;5.09;53.34
55990;BME280;41875;55.806;38.082;2023-03-21T05:00:53;98800.63;;;5.27;53.94
55990;BME280;41875;55.806;38.082;2023-03-21T05:03:23;98800.13;;;5.51;52.61
55990;BME280;41875;55.806;38.082;2023-03-21T05:05:51;98793.91;;;5.52;52.58
55990;BME280;41875;55.806;38.082;2023-03-21T05:08:19;98796.47;;;6.00;51.33
55990;BME280;41875;55.806;38.082;2023-03-21T05:10:47;98792.44;;;6.23;50.62
55990;BME280;41875;55.806;38.082;2023-03-21T05:13:15;98793.94;;;5.98;51.00
55990;BME280;41875;55.806;38.082;2023-03-21T05:15:44;98791.25;;;5.90;51.65
55990;BME280;41875;55.806;38.082;2023-03-21T05:18:14;98789.13;;;6.03;51.61
55990;BME280;41875;55.806;38.082;2023-03-21T05:21:05;98792.94;;;5.53;52.19
55990;BME280;41875;55.806;38.082;2023-03-21T05:23:38;98790.34;;;5.99;51.15
55990;BME280;41875;55.806;38.082;2023-03-21T05:26:07;98787.69;;;6.09;51.25
55990;BME280;41875;55.806;38.082;2023-03-21T05:28:42;98790.38;;;6.27;50.78
55990;BME280;41875;55.806;38.082;2023-03-21T05:31:10;98787.97;;;6.34;50.09
55990;BME280;41875;55.806;38.082;2023-03-21T05:33:44;98785.78;;;6.47;49.99
55990;BME280;41875;55.806;38.082;2023-03-21T05:36:16;98782.25;;;5.83;51.62
55990;BME280;41875;55.806;38.082;2023-03-21T05:38:45;98789.28;;;5.64;52.11
55990;BME280;41875;55.806;38.082;2023-03-21T05:41:14;98787.78;;;5.89;51.31
55990;BME280;41875;55.806;38.082;2023-03-21T05:43:45;98787.06;;;5.97;51.09
55990;BME280;41875;55.806;38.082;2023-03-21T05:46:14;98791.34;;;6.44;50.15
55990;BME280;41875;55.806;38.082;2023-03-21T05:48:45;98793.47;;;5.85;51.19
55990;BME280;41875;55.806;38.082;2023-03-21T05:51:16;98793.69;;;5.91;51.32
55990;BME280;41875;55.806;38.082;2023-03-21T05:53:45;98794.75;;;6.08;50.70
55990;BME280;41875;55.806;38.082;2023-03-21T05:56:15;98796.56;;;6.08;51.00
55990;BME280;41875;55.806;38.082;2023-03-21T05:58:48;98794.53;;;6.02;51.09
55990;BME280;41875;55.806;38.082;2023-03-21T06:01:18;98796.22;;;6.57;50.26
55990;BME280;41875;55.806;38.082;2023-03-21T06:03:56;98789.97;;;6.22;51.37
55990;BME280;41875;55.806;38.082;2023-03-21T06:06:26;98787.63;;;6.01;51.27
55990;BME280;41875;55.806;38.082;2023-03-21T06:08:58;98787.78;;;6.35;50.75
55990;BME280;41875;55.806;38.082;2023-03-21T06:11:28;98786.97;;;6.53;50.91
55990;BME280;41875;55.806;38.082;2023-03-21T06:14:12;98785.81;;;6.92;49.24
55990;BME280;41875;55.806;38.082;2023-03-21T06:16:42;98787.84;;;6.80;49.49
55990;BME280;41875;55.806;38.082;2023-03-21T06:19:13;98789.53;;;7.07;48.82
55990;BME280;41875;55.806;38.082;2023-03-21T06:22:04;98784.78;;;7.37;47.93
55990;BME280;41875;55.806;38.082;2023-03-21T06:24:35;98779.50;;;7.80;47.08
55990;BME280;41875;55.806;38.082;2023-03-21T06:27:03;98784.84;;;7.88;46.65
55990;BME280;41875;55.806;38.082;2023-03-21T06:29:44;98786.06;;;8.11;46.09
55990;BME280;41875;55.806;38.082;2023-03-21T06:32:12;98784.16;;;7.86;46.23
55990;BME280;41875;55.806;38.082;2023-03-21T06:34:47;98781.28;;;8.14;45.73
55990;BME280;41875;55.806;38.082;2023-03-21T06:37:16;98777.28;;;8.02;46.18
55990;BME280;41875;55.806;38.082;2023-03-21T06:39:45;98785.66;;;8.57;45.07
55990;BME280;41875;55.806;38.082;2023-03-21T06:42:13;98780.88;;;8.52;44.88
55990;BME280;41875;55.806;38.082;2023-03-21T06:44:42;98780.91;;;8.77;44.26
55990;BME280;41875;55.806;38.082;2023-03-21T06:47:13;98775.44;;;8.53;44.51
55990;BME280;41875;55.806;38.082;2023-03-21T06:49:44;98772.16;;;8.68;44.21
55990;BME280;41875;55.806;38.082;2023-03-21T06:52:13;98770.31;;;8.68;44.07
55990;BME280;41875;55.806;38.082;2023-03-21T06:54:42;98774.75;;;9.09;42.97
55990;BME280;41875;55.806;38.082;2023-03-21T06:57:12;98773.13;;;8.83;43.52
55990;BME280;41875;55.806;38.082;2023-03-21T06:59:41;98757.47;;;8.74;42.84
55990;BME280;41875;55.806;38.082;2023-03-21T07:02:13;98760.81;;;9.40;41.95
55990;BME280;41875;55.806;38.082;2023-03-21T07:05:05;98770.72;;;9.38;41.90
55990;BME280;41875;55.806;38.082;2023-03-21T07:07:36;98755.56;;;9.15;42.47
55990;BME280;41875;55.806;38.082;2023-03-21T07:10:04;98750.72;;;9.44;41.92
55990;BME280;41875;55.806;38.082;2023-03-21T07:12:41;98748.09;;;9.36;41.62
55990;BME280;41875;55.806;38.082;2023-03-21T07:15:19;98759.00;;;9.33;42.01
55990;BME280;41875;55.806;38.082;2023-03-21T07:17:49;98756.66;;;9.46;41.75
55990;BME280;41875;55.806;38.082;2023-03-21T07:20:18;98754.25;;;9.20;41.86
55990;BME280;41875;55.806;38.082;2023-03-21T07:22:48;98749.94;;;9.75;40.99
55990;BME280;41875;55.806;38.082;2023-03-21T07:25:17;98755.22;;;10.61;39.22
55990;BME280;41875;55.806;38.082;2023-03-21T07:27:47;98744.91;;;10.20;39.94
55990;BME280;41875;55.806;38.082;2023-03-21T07:30:16;98749.81;;;10.55;39.26
55990;BME280;41875;55.806;38.082;2023-03-21T07:32:44;98750.97;;;9.97;40.50
55990;BME280;41875;55.806;38.082;2023-03-21T07:35:15;98748.03;;;10.15;40.52
55990;BME280;41875;55.806;38.082;2023-03-21T07:37:44;98745.28;;;10.09;40.51
55990;BME280;41875;55.806;38.082;2023-03-21T07:40:16;98752.09;;;10.03;40.90
55990;BME280;41875;55.806;38.082;2023-03-21T07:42:44;98744.03;;;10.89;39.20
55990;BME280;41875;55.806;38.082;2023-03-21T07:45:26;98741.94;;;11.00;39.78
55990;BME280;41875;55.806;38.082;2023-03-21T07:47:55;98748.44;;;10.59;41.08
55990;BME280;41875;55.806;38.082;2023-03-21T07:50:24;98735.91;;;10.91;40.50
55990;BME280;41875;55.806;38.082;2023-03-21T07:52:52;98724.97;;;11.24;39.98
55990;BME280;41875;55.806;38.082;2023-03-21T07:55:22;98730.06;;;10.34;41.30
55990;BME280;41875;55.806;38.082;2023-03-21T07:57:50;98725.56;;;10.43;41.25
55990;BME280;41875;55.806;38.082;2023-03-21T08:00:19;98722.00;;;10.27;41.25
55990;BME280;41875;55.806;38.082;2023-03-21T08:02:49;98720.72;;;10.46;41.04
55990;BME280;41875;55.806;38.082;2023-03-21T08:05:24;98717.28;;;10.14;42.05
55990;BME280;41875;55.806;38.082;2023-03-21T08:07:53;98718.13;;;10.15;41.84
55990;BME280;41875;55.806;38.082;2023-03-21T08:10:23;98711.94;;;10.22;41.44
55990;BME280;41875;55.806;38.082;2023-03-21T08:12:51;98720.44;;;10.41;41.39
55990;BME280;41875;55.806;38.082;2023-03-21T08:15:19;98716.28;;;11.00;40.08
55990;BME280;41875;55.806;38.082;2023-03-21T08:17:47;98714.53;;;11.07;39.96
55990;BME280;41875;55.806;38.082;2023-03-21T08:20:17;98707.97;;;12.00;37.95
55990;BME280;41875;55.806;38.082;2023-03-21T08:22:47;98722.09;;;11.70;38.45
55990;BME280;41875;55.806;38.082;2023-03-21T08:25:16;98718.63;;;11.55;38.63
55990;BME280;41875;55.806;38.082;2023-03-21T08:27:46;98723.16;;;11.76;38.13
55990;BME280;41875;55.806;38.082;2023-03-21T08:30:16;98714.63;;;11.29;39.05
55990;BME280;41875;55.806;38.082;2023-03-21T08:32:44;98723.31;;;11.38;39.14
55990;BME280;41875;55.806;38.082;2023-03-21T08:35:13;98723.00;;;11.78;38.17
55990;BME280;41875;55.806;38.082;2023-03-21T08:37:42;98715.84;;;11.26;39.21
55990;BME280;41875;55.806;38.082;2023-03-21T08:40:11;98722.31;;;11.24;39.18
55990;BME280;41875;55.806;38.082;2023-03-21T08:42:40;98721.47;;;11.38;39.11
55990;BME280;41875;55.806;38.082;2023-03-21T08:45:10;98727.97;;;11.36;39.00
55990;BME280;41875;55.806;38.082;2023-03-21T08:47:38;98729.97;;;11.04;39.53
55990;BME280;41875;55.806;38.082;2023-03-21T08:50:14;98720.31;;;10.34;41.13
55990;BME280;41875;55.806;38.082;2023-03-21T08:52:43;98726.16;;;9.98;42.40
55990;BME280;41875;55.806;38.082;2023-03-21T08:55:12;98733.31;;;9.89;42.34
55990;BME280;41875;55.806;38.082;2023-03-21T08:57:41;98723.31;;;10.00;42.53
55990;BME280;41875;55.806;38.082;2023-03-21T09:00:12;98721.00;;;10.28;42.12
55990;BME280;41875;55.806;38.082;2023-03-21T09:02:41;98722.75;;;9.58;43.99
55990;BME280;41875;55.806;38.082;2023-03-21T09:05:10;98731.47;;;9.67;44.08
55990;BME280;41875;55.806;38.082;2023-03-21T09:07:39;98730.06;;;10.11;43.65
55990;BME280;41875;55.806;38.082;2023-03-21T09:10:09;98726.91;;;9.84;44.67
55990;BME280;41875;55.806;38.082;2023-03-21T09:12:47;98728.50;;;9.61;45.32
55990;BME280;41875;55.806;38.082;2023-03-21T09:15:17;98720.66;;;10.31;43.88
55990;BME280;41875;55.806;38.082;2023-03-21T09:17:47;98728.19;;;10.19;44.13
55990;BME280;41875;55.806;38.082;2023-03-21T09:20:18;98733.34;;;10.36;43.85
55990;BME280;41875;55.806;38.082;2023-03-21T09:22:52;98728.41;;;10.10;44.65
55990;BME280;41875;55.806;38.082;2023-03-21T09:25:21;98725.03;;;10.47;44.23
55990;BME280;41875;55.806;38.082;2023-03-21T09:27:49;98724.94;;;9.77;45.56
55990;BME280;41875;55.806;38.082;2023-03-21T09:30:21;98725.19;;;9.91;45.44
55990;BME280;41875;55.806;38.082;2023-03-21T09:32:52;98720.44;;;9.86;45.99
55990;BME280;41875;55.806;38.082;2023-03-21T09:35:22;98734.44;;;9.64;47.50
55990;BME280;41875;55.806;38.082;2023-03-21T09:37:52;98729.59;;;9.36;48.62
55990;BME280;41875;55.806;38.082;2023-03-21T09:40:33;98734.84;;;9.52;49.22
55990;BME280;41875;55.806;38.082;2023-03-21T09:43:12;98732.31;;;9.59;49.91
55990;BME280;41875;55.806;38.082;2023-03-21T09:45:45;98720.31;;;9.40;51.63
55990;BME280;41875;55.806;38.082;2023-03-21T09:48:19;98727.44;;;9.31;52.73
55990;BME280;41875;55.806;38.082;2023-03-21T09:50:51;98715.28;;;10.16;51.19
55990;BME280;41875;55.806;38.082;2023-03-21T09:53:21;98705.94;;;9.82;52.44
55990;BME280;41875;55.806;38.082;2023-03-21T09:55:51;98712.13;;;9.66;52.96
55990;BME280;41875;55.806;38.082;2023-03-21T09:58:22;98708.09;;;10.02;52.62
55990;BME280;41875;55.806;38.082;2023-03-21T10:00:55;98703.16;;;9.99;52.62
55990;BME280;41875;55.806;38.082;2023-03-21T10:03:28;98708.22;;;10.32;51.47
55990;BME280;41875;55.806;38.082;2023-03-21T10:06:02;98707.59;;;10.53;50.89
55990;BME280;41875;55.806;38.082;2023-03-21T10:08:32;98696.38;;;10.28;51.20
55990;BME280;41875;55.806;38.082;2023-03-21T10:11:03;98693.66;;;10.59;50.55
55990;BME280;41875;55.806;38.082;2023-03-21T10:13:34;98688.69;;;10.33;50.17
55990;BME280;41875;55.806;38.082;2023-03-21T10:16:08;98688.88;;;11.08;48.32
55990;BME280;41875;55.806;38.082;2023-03-21T10:18:37;98677.88;;;11.26;47.34
55990;BME280;41875;55.806;38.082;2023-03-21T10:21:09;98688.13;;;11.14;47.67
55990;BME280;41875;55.806;38.082;2023-03-21T10:24:02;98683.84;;;11.80;45.63
55990;BME280;41875;55.806;38.082;2023-03-21T10:26:30;98689.63;;;11.68;45.39
55990;BME280;41875;55.806;38.082;2023-03-21T10:28:58;98675.53;;;12.04;44.80
55990;BME280;41875;55.806;38.082;2023-03-21T10:31:30;98674.38;;;11.55;45.39
55990;BME280;41875;55.806;38.082;2023-03-21T10:34:00;98675.78;;;12.31;43.28
55990;BME280;41875;55.806;38.082;2023-03-21T10:36:30;98673.81;;;12.40;42.67
55990;BME280;41875;55.806;38.082;2023-03-21T10:39:00;98677.19;;;11.54;43.88
55990;BME280;41875;55.806;38.082;2023-03-21T10:41:30;98664.00;;;11.24;45.63
55990;BME280;41875;55.806;38.082;2023-03-21T10:44:06;98656.69;;;11.63;45.18
55990;BME280;41875;55.806;38.082;2023-03-21T10:46:36;98653.38;;;11.76;44.41
55990;BME280;41875;55.806;38.082;2023-03-21T10:49:06;98651.56;;;11.24;45.23
55990;BME280;41875;55.806;38.082;2023-03-21T10:51:35;98645.34;;;11.17;45.27
55990;BME280;41875;55.806;38.082;2023-03-21T10:54:04;98648.66;;;11.56;44.27
55990;BME280;41875;55.806;38.082;2023-03-21T10:56:34;98647.91;;;11.25;44.77
55990;BME280;41875;55.806;38.082;2023-03-21T10:59:03;98647.44;;;11.22;44.94
55990;BME280;41875;55.806;38.082;2023-03-21T11:01:34;98644.53;;;11.17;45.08
55990;BME280;41875;55.806;38.082;2023-03-21T11:04:09;98653.72;;;10.22;46.63
55990;BME280;41875;55.806;38.082;2023-03-21T11:06:40;98645.66;;;11.81;43.50
55990;BME280;41875;55.806;38.082;2023-03-21T11:09:13;98646.03;;;12.14;42.68
55990;BME280;41875;55.806;38.082;2023-03-21T11:11:48;98639.97;;;11.99;42.82
55990;BME280;41875;55.806;38.082;2023-03-21T11:14:24;98638.41;;;12.33;41.95
55990;BME280;41875;55.806;38.082;2023-03-21T11:16:53;98636.75;;;12.89;40.96
55990;BME280;41875;55.806;38.082;2023-03-21T11:19:28;98634.25;;;13.71;39.83
55990;BME280;41875;55.806;38.082;2023-03-21T11:21:57;98630.00;;;14.10;38.30
55990;BME280;41875;55.806;38.082;2023-03-21T11:24:27;98641.72;;;12.99;40.46
55990;BME280;41875;55.806;38.082;2023-03-21T11:26:57;98631.59;;;13.22;40.16
55990;BME280;41875;55.806;38.082;2023-03-21T11:29:31;98626.88;;;13.18;40.62
55990;BME280;41875;55.806;38.082;2023-03-21T11:32:01;98630.16;;;12.78;41.63
55990;BME280;41875;55.806;38.082;2023-03-21T11:34:40;98632.75;;;11.56;43.52
55990;BME280;41875;55.806;38.082;2023-03-21T11:37:17;98635.84;;;11.08;44.85
55990;BME280;41875;55.806;38.082;2023-03-21T11:39:46;98633.31;;;11.51;43.70
55990;BME280;41875;55.806;38.082;2023-03-21T11:42:25;98626.97;;;12.11;43.13
55990;BME280;41875;55.806;38.082;2023-03-21T11:45:00;98628.13;;;12.23;42.19
55990;BME280;41875;55.806;38.082;2023-03-21T11:47:28;98622.34;;;12.41;41.93
55990;BME280;41875;55.806;38.082;2023-03-21T11:49:58;98622.59;;;13.17;40.88
55990;BME280;41875;55.806;38.082;2023-03-21T11:52:34;98613.50;;;12.98;40.58
55990;BME280;41875;55.806;38.082;2023-03-21T11:55:08;98608.94;;;12.56;41.73
55990;BME280;41875;55.806;38.082;2023-03-21T11:57:42;98608.81;;;12.08;42.21
55990;BME280;41875;55.806;38.082;2023-03-21T12:00:12;98602.69;;;11.49;43.43
55990;BME280;41875;55.806;38.082;2023-03-21T12:02:53;98603.88;;;11.46;43.50
55990;BME280;41875;55.806;38.082;2023-03-21T12:05:27;98596.81;;;11.53;43.55
55990;BME280;41875;55.806;38.082;2023-03-21T12:07:58;98587.25;;;11.37;43.49
55990;BME280;41875;55.806;38.082;2023-03-21T12:10:30;98592.91;;;11.12;43.83
55990;BME280;41875;55.806;38.082;2023-03-21T12:13:02;98585.41;;;11.74;42.72
55990;BME280;41875;55.806;38.082;2023-03-21T12:15:33;98575.63;;;11.53;42.98
55990;BME280;41875;55.806;38.082;2023-03-21T12:18:05;98579.22;;;11.31;43.03
55990;BME280;41875;55.806;38.082;2023-03-21T12:20:42;98574.53;;;11.11;43.55
55990;BME280;41875;55.806;38.082;2023-03-21T12:23:18;98570.72;;;10.83;44.21
55990;BME280;41875;55.806;38.082;2023-03-21T12:25:53;98581.97;;;9.79;45.86
55990;BME280;41875;55.806;38.082;2023-03-21T12:28:26;98576.41;;;10.12;45.92
55990;BME280;41875;55.806;38.082;2023-03-21T12:31:04;98582.22;;;10.46;45.06
55990;BME280;41875;55.806;38.082;2023-03-21T12:33:44;98584.41;;;11.76;42.45
55990;BME280;41875;55.806;38.082;2023-03-21T12:36:25;98582.66;;;11.24;42.65
55990;BME280;41875;55.806;38.082;2023-03-21T12:38:58;98575.53;;;11.10;42.96
55990;BME280;41875;55.806;38.082;2023-03-21T12:41:32;98581.41;;;10.75;43.52
55990;BME280;41875;55.806;38.082;2023-03-21T12:44:02;98569.09;;;11.34;42.32
55990;BME280;41875;55.806;38.082;2023-03-21T12:46:32;98567.84;;;11.15;42.37
55990;BME280;41875;55.806;38.082;2023-03-21T12:49:04;98563.09;;;11.25;42.02
55990;BME280;41875;55.806;38.082;2023-03-21T12:51:38;98565.16;;;11.52;41.37
55990;BME280;41875;55.806;38.082;2023-03-21T12:54:12;98570.94;;;11.77;40.81
55990;BME280;41875;55.806;38.082;2023-03-21T12:56:44;98568.59;;;12.11;40.09
55990;BME280;41875;55.806;38.082;2023-03-21T12:59:17;98565.31;;;11.87;40.53
55990;BME280;41875;55.806;38.082;2023-03-21T13:01:50;98559.13;;;11.80;40.62
55990;BME280;41875;55.806;38.082;2023-03-21T13:04:30;98545.38;;;11.48;40.96
55990;BME280;41875;55.806;38.082;2023-03-21T13:07:04;98546.97;;;11.27;41.65
55990;BME280;41875;55.806;38.082;2023-03-21T13:09:35;98543.41;;;12.00;40.58
55990;BME280;41875;55.806;38.082;2023-03-21T13:12:07;98548.50;;;11.58;40.74
55990;BME280;41875;55.806;38.082;2023-03-21T13:14:41;98549.97;;;11.82;40.43
55990;BME280;41875;55.806;38.082;2023-03-21T13:17:15;98536.66;;;12.61;38.99
55990;BME280;41875;55.806;38.082;2023-03-21T13:19:47;98542.59;;;11.19;41.19
55990;BME280;41875;55.806;38.082;2023-03-21T13:25:18;98540.28;;;10.94;41.89
55990;BME280;41875;55.806;38.082;2023-03-21T13:27:51;98530.31;;;11.98;39.74
55990;BME280;41875;55.806;38.082;2023-03-21T13:30:21;98526.75;;;12.48;38.39